KGCN/GCN METAR and TAF weather

Enter ICAO airport designator
Station Type Date Time Source
KGCN METAR 2019/07/17 12:54 UTC NOAA

KGCN 171254Z 00000KT 10SM CLR 07/01 A3024 RMK AO2 SLP148 T00670011


Station Type Date Time Source
KGCN Decoded METAR 2019/07/17 12:54 UTC NOAA

GRAND CANYON NATL PARK AIRPORT , AZ, United States (KGCN) 35-57N 112-09W 2016M
Jul 17, 2019 - 08:54 AM EDT / 2019.07.17 1254 UTC
Wind: Calm:0
Visibility: 10 mile(s):0
Sky conditions: clear
Temperature: 44.1 F (6.7 C)
Dew Point: 34.0 F (1.1 C)
Relative Humidity: 67%
Pressure (altimeter): 30.24 in. Hg (1024 hPa)
ob: KGCN 171254Z 00000KT 10SM CLR 07/01 A3024 RMK AO2 SLP148 T00670011
cycle: 13

Station Type Date Time Source
KGCN TAF 2019/07/17 12:39 UTC NOAA

TAF KGCN 171136Z 1712/1812 22005KT P6SM SKC
FM171600 22015G25KT P6SM SCT080
FM180230 22007KT P6SM FEW080

Example: see airport list